sensor_id;sensor_type;location;lat;lon;timestamp;P1;durP1;ratioP1;P2;durP2;ratioP2
3943;SDS011;1986;52.546;13.428;2024-02-16T00:01:43;0.50;;;0.50;;
3943;SDS011;1986;52.546;13.428;2024-02-16T00:04:10;0.40;;;0.40;;
3943;SDS011;1986;52.546;13.428;2024-02-16T00:06:37;0.40;;;0.40;;
3943;SDS011;1986;52.546;13.428;2024-02-16T00:09:04;0.40;;;0.40;;
3943;SDS011;1986;52.546;13.428;2024-02-16T00:11:32;0.50;;;0.50;;
3943;SDS011;1986;52.546;13.428;2024-02-16T00:13:59;0.40;;;0.40;;
3943;SDS011;1986;52.546;13.428;2024-02-16T00:16:27;0.40;;;0.40;;
3943;SDS011;1986;52.546;13.428;2024-02-16T00:18:55;0.30;;;0.30;;
3943;SDS011;1986;52.546;13.428;2024-02-16T00:21:22;0.30;;;0.30;;
3943;SDS011;1986;52.546;13.428;2024-02-16T00:23:49;0.30;;;0.30;;
3943;SDS011;1986;52.546;13.428;2024-02-16T00:26:20;0.30;;;0.30;;
3943;SDS011;1986;52.546;13.428;2024-02-16T00:28:51;0.30;;;0.30;;
3943;SDS011;1986;52.546;13.428;2024-02-16T00:31:18;0.30;;;0.30;;
3943;SDS011;1986;52.546;13.428;2024-02-16T00:33:45;0.30;;;0.30;;
3943;SDS011;1986;52.546;13.428;2024-02-16T00:36:12;0.30;;;0.30;;
3943;SDS011;1986;52.546;13.428;2024-02-16T00:38:41;0.30;;;0.30;;
3943;SDS011;1986;52.546;13.428;2024-02-16T00:41:16;0.30;;;0.30;;
3943;SDS011;1986;52.546;13.428;2024-02-16T00:43:45;0.30;;;0.30;;
3943;SDS011;1986;52.546;13.428;2024-02-16T00:46:27;0.30;;;0.30;;
3943;SDS011;1986;52.546;13.428;2024-02-16T00:49:05;0.30;;;0.30;;
3943;SDS011;1986;52.546;13.428;2024-02-16T00:51:34;0.30;;;0.30;;
3943;SDS011;1986;52.546;13.428;2024-02-16T00:54:01;0.30;;;0.30;;
3943;SDS011;1986;52.546;13.428;2024-02-16T00:56:29;0.27;;;0.27;;
3943;SDS011;1986;52.546;13.428;2024-02-16T00:58:57;0.20;;;0.20;;
3943;SDS011;1986;52.546;13.428;2024-02-16T01:01:25;0.30;;;0.30;;
3943;SDS011;1986;52.546;13.428;2024-02-16T01:03:52;0.30;;;0.30;;
3943;SDS011;1986;52.546;13.428;2024-02-16T01:06:19;0.30;;;0.30;;
3943;SDS011;1986;52.546;13.428;2024-02-16T01:08:49;0.30;;;0.30;;
3943;SDS011;1986;52.546;13.428;2024-02-16T01:11:19;0.30;;;0.30;;
3943;SDS011;1986;52.546;13.428;2024-02-16T01:13:47;0.30;;;0.30;;
3943;SDS011;1986;52.546;13.428;2024-02-16T01:16:15;0.30;;;0.30;;
3943;SDS011;1986;52.546;13.428;2024-02-16T01:18:44;0.40;;;0.40;;
3943;SDS011;1986;52.546;13.428;2024-02-16T01:21:11;0.40;;;0.40;;
3943;SDS011;1986;52.546;13.428;2024-02-16T01:23:38;0.40;;;0.40;;
3943;SDS011;1986;52.546;13.428;2024-02-16T01:26:06;0.50;;;0.50;;
3943;SDS011;1986;52.546;13.428;2024-02-16T01:28:33;0.43;;;0.43;;
3943;SDS011;1986;52.546;13.428;2024-02-16T01:31:02;0.37;;;0.37;;
3943;SDS011;1986;52.546;13.428;2024-02-16T01:33:30;0.30;;;0.30;;
3943;SDS011;1986;52.546;13.428;2024-02-16T01:36:01;0.30;;;0.30;;
3943;SDS011;1986;52.546;13.428;2024-02-16T01:38:29;0.30;;;0.30;;
3943;SDS011;1986;52.546;13.428;2024-02-16T01:40:58;0.30;;;0.30;;
3943;SDS011;1986;52.546;13.428;2024-02-16T01:43:25;0.30;;;0.30;;
3943;SDS011;1986;52.546;13.428;2024-02-16T01:45:52;0.20;;;0.20;;
3943;SDS011;1986;52.546;13.428;2024-02-16T01:48:19;0.20;;;0.20;;
3943;SDS011;1986;52.546;13.428;2024-02-16T01:50:46;0.20;;;0.20;;
3943;SDS011;1986;52.546;13.428;2024-02-16T01:53:18;0.20;;;0.20;;
3943;SDS011;1986;52.546;13.428;2024-02-16T01:55:45;0.20;;;0.20;;
3943;SDS011;1986;52.546;13.428;2024-02-16T01:58:12;0.20;;;0.20;;
3943;SDS011;1986;52.546;13.428;2024-02-16T02:00:40;0.13;;;0.13;;
3943;SDS011;1986;52.546;13.428;2024-02-16T02:03:10;0.10;;;0.10;;
3943;SDS011;1986;52.546;13.428;2024-02-16T02:05:43;0.10;;;0.10;;
3943;SDS011;1986;52.546;13.428;2024-02-16T02:08:11;0.10;;;0.10;;
3943;SDS011;1986;52.546;13.428;2024-02-16T02:10:40;0.10;;;0.10;;
3943;SDS011;1986;52.546;13.428;2024-02-16T02:13:10;0.10;;;0.10;;
3943;SDS011;1986;52.546;13.428;2024-02-16T02:15:38;0.10;;;0.10;;
3943;SDS011;1986;52.546;13.428;2024-02-16T02:18:05;0.10;;;0.10;;
3943;SDS011;1986;52.546;13.428;2024-02-16T02:20:32;0.10;;;0.10;;
3943;SDS011;1986;52.546;13.428;2024-02-16T02:23:01;0.10;;;0.10;;
3943;SDS011;1986;52.546;13.428;2024-02-16T02:25:32;0.10;;;0.10;;
3943;SDS011;1986;52.546;13.428;2024-02-16T02:28:00;0.00;;;0.00;;
3943;SDS011;1986;52.546;13.428;2024-02-16T02:30:29;0.10;;;0.10;;
3943;SDS011;1986;52.546;13.428;2024-02-16T02:32:57;0.10;;;0.10;;
3943;SDS011;1986;52.546;13.428;2024-02-16T02:35:30;0.00;;;0.00;;
3943;SDS011;1986;52.546;13.428;2024-02-16T02:37:58;0.10;;;0.10;;
3943;SDS011;1986;52.546;13.428;2024-02-16T02:40:26;0.00;;;0.00;;
3943;SDS011;1986;52.546;13.428;2024-02-16T02:42:53;0.00;;;0.00;;
3943;SDS011;1986;52.546;13.428;2024-02-16T02:45:20;0.00;;;0.00;;
3943;SDS011;1986;52.546;13.428;2024-02-16T02:47:48;0.03;;;0.03;;
3943;SDS011;1986;52.546;13.428;2024-02-16T02:50:18;0.10;;;0.10;;
3943;SDS011;1986;52.546;13.428;2024-02-16T02:52:46;0.10;;;0.10;;
3943;SDS011;1986;52.546;13.428;2024-02-16T02:55:13;0.00;;;0.00;;
3943;SDS011;1986;52.546;13.428;2024-02-16T02:57:42;0.10;;;0.10;;
3943;SDS011;1986;52.546;13.428;2024-02-16T03:00:09;0.10;;;0.10;;
3943;SDS011;1986;52.546;13.428;2024-02-16T03:02:37;0.10;;;0.10;;
3943;SDS011;1986;52.546;13.428;2024-02-16T03:05:05;0.07;;;0.07;;
3943;SDS011;1986;52.546;13.428;2024-02-16T03:07:33;0.00;;;0.00;;
3943;SDS011;1986;52.546;13.428;2024-02-16T03:10:01;0.10;;;0.10;;
3943;SDS011;1986;52.546;13.428;2024-02-16T03:12:29;0.10;;;0.10;;
3943;SDS011;1986;52.546;13.428;2024-02-16T03:15:00;0.00;;;0.00;;
3943;SDS011;1986;52.546;13.428;2024-02-16T03:17:28;0.10;;;0.10;;
3943;SDS011;1986;52.546;13.428;2024-02-16T03:19:57;0.10;;;0.10;;
3943;SDS011;1986;52.546;13.428;2024-02-16T03:22:25;0.10;;;0.10;;
3943;SDS011;1986;52.546;13.428;2024-02-16T03:24:52;0.10;;;0.10;;
3943;SDS011;1986;52.546;13.428;2024-02-16T03:27:19;0.10;;;0.10;;
3943;SDS011;1986;52.546;13.428;2024-02-16T03:29:46;0.10;;;0.10;;
3943;SDS011;1986;52.546;13.428;2024-02-16T03:32:17;0.10;;;0.10;;
3943;SDS011;1986;52.546;13.428;2024-02-16T03:34:44;0.10;;;0.10;;
3943;SDS011;1986;52.546;13.428;2024-02-16T03:37:12;0.10;;;0.10;;
3943;SDS011;1986;52.546;13.428;2024-02-16T03:39:39;0.10;;;0.10;;
3943;SDS011;1986;52.546;13.428;2024-02-16T03:42:07;0.20;;;0.20;;
3943;SDS011;1986;52.546;13.428;2024-02-16T03:44:34;0.10;;;0.10;;
3943;SDS011;1986;52.546;13.428;2024-02-16T03:47:01;0.20;;;0.20;;
3943;SDS011;1986;52.546;13.428;2024-02-16T03:49:31;0.10;;;0.10;;
3943;SDS011;1986;52.546;13.428;2024-02-16T03:52:01;0.20;;;0.20;;
3943;SDS011;1986;52.546;13.428;2024-02-16T03:54:36;0.20;;;0.20;;
3943;SDS011;1986;52.546;13.428;2024-02-16T03:57:13;0.20;;;0.20;;
3943;SDS011;1986;52.546;13.428;2024-02-16T03:59:50;0.10;;;0.10;;
3943;SDS011;1986;52.546;13.428;2024-02-16T04:02:21;0.10;;;0.10;;
3943;SDS011;1986;52.546;13.428;2024-02-16T04:05:02;0.10;;;0.10;;
3943;SDS011;1986;52.546;13.428;2024-02-16T04:07:36;0.10;;;0.10;;
3943;SDS011;1986;52.546;13.428;2024-02-16T04:10:06;0.10;;;0.10;;
3943;SDS011;1986;52.546;13.428;2024-02-16T04:12:36;0.20;;;0.20;;
3943;SDS011;1986;52.546;13.428;2024-02-16T04:15:04;0.10;;;0.10;;
3943;SDS011;1986;52.546;13.428;2024-02-16T04:17:31;0.10;;;0.10;;
3943;SDS011;1986;52.546;13.428;2024-02-16T04:20:01;0.17;;;0.17;;
3943;SDS011;1986;52.546;13.428;2024-02-16T04:22:29;0.20;;;0.20;;
3943;SDS011;1986;52.546;13.428;2024-02-16T04:25:02;0.10;;;0.10;;
3943;SDS011;1986;52.546;13.428;2024-02-16T04:27:31;0.20;;;0.20;;
3943;SDS011;1986;52.546;13.428;2024-02-16T04:29:58;0.20;;;0.20;;
3943;SDS011;1986;52.546;13.428;2024-02-16T04:32:28;0.10;;;0.10;;
3943;SDS011;1986;52.546;13.428;2024-02-16T04:34:55;0.20;;;0.20;;
3943;SDS011;1986;52.546;13.428;2024-02-16T04:37:26;0.20;;;0.20;;
3943;SDS011;1986;52.546;13.428;2024-02-16T04:39:53;0.10;;;0.10;;
3943;SDS011;1986;52.546;13.428;2024-02-16T04:42:20;0.20;;;0.20;;
3943;SDS011;1986;52.546;13.428;2024-02-16T04:44:48;0.20;;;0.20;;
3943;SDS011;1986;52.546;13.428;2024-02-16T04:47:20;0.20;;;0.20;;
3943;SDS011;1986;52.546;13.428;2024-02-16T04:49:48;0.20;;;0.20;;
3943;SDS011;1986;52.546;13.428;2024-02-16T04:52:15;0.20;;;0.20;;
3943;SDS011;1986;52.546;13.428;2024-02-16T04:54:52;0.10;;;0.10;;
3943;SDS011;1986;52.546;13.428;2024-02-16T04:57:21;0.20;;;0.20;;
3943;SDS011;1986;52.546;13.428;2024-02-16T04:59:50;0.20;;;0.20;;
3943;SDS011;1986;52.546;13.428;2024-02-16T05:02:17;0.20;;;0.20;;
3943;SDS011;1986;52.546;13.428;2024-02-16T05:04:46;0.20;;;0.20;;
3943;SDS011;1986;52.546;13.428;2024-02-16T05:07:17;0.20;;;0.20;;
3943;SDS011;1986;52.546;13.428;2024-02-16T05:09:47;0.20;;;0.20;;
3943;SDS011;1986;52.546;13.428;2024-02-16T05:12:22;0.20;;;0.20;;
3943;SDS011;1986;52.546;13.428;2024-02-16T05:14:50;0.20;;;0.20;;
3943;SDS011;1986;52.546;13.428;2024-02-16T05:17:19;0.30;;;0.30;;
3943;SDS011;1986;52.546;13.428;2024-02-16T05:19:51;0.20;;;0.20;;
3943;SDS011;1986;52.546;13.428;2024-02-16T05:22:20;0.20;;;0.20;;
3943;SDS011;1986;52.546;13.428;2024-02-16T05:24:50;0.20;;;0.20;;
3943;SDS011;1986;52.546;13.428;2024-02-16T05:27:18;0.20;;;0.20;;
3943;SDS011;1986;52.546;13.428;2024-02-16T05:29:46;0.30;;;0.30;;
3943;SDS011;1986;52.546;13.428;2024-02-16T05:32:14;0.20;;;0.20;;
3943;SDS011;1986;52.546;13.428;2024-02-16T05:34:43;0.27;;;0.27;;
3943;SDS011;1986;52.546;13.428;2024-02-16T05:37:15;0.20;;;0.20;;
3943;SDS011;1986;52.546;13.428;2024-02-16T05:39:42;0.10;;;0.10;;
3943;SDS011;1986;52.546;13.428;2024-02-16T05:42:19;0.20;;;0.20;;
3943;SDS011;1986;52.546;13.428;2024-02-16T05:44:49;0.20;;;0.20;;
3943;SDS011;1986;52.546;13.428;2024-02-16T05:47:19;0.20;;;0.20;;
3943;SDS011;1986;52.546;13.428;2024-02-16T05:49:46;0.20;;;0.20;;
3943;SDS011;1986;52.546;13.428;2024-02-16T05:52:13;0.30;;;0.30;;
3943;SDS011;1986;52.546;13.428;2024-02-16T05:54:47;0.20;;;0.20;;
3943;SDS011;1986;52.546;13.428;2024-02-16T05:57:16;0.30;;;0.30;;
3943;SDS011;1986;52.546;13.428;2024-02-16T05:59:45;0.20;;;0.20;;
3943;SDS011;1986;52.546;13.428;2024-02-16T06:02:14;0.20;;;0.20;;
3943;SDS011;1986;52.546;13.428;2024-02-16T06:04:44;0.30;;;0.30;;
3943;SDS011;1986;52.546;13.428;2024-02-16T06:07:12;0.30;;;0.30;;
3943;SDS011;1986;52.546;13.428;2024-02-16T06:09:40;0.30;;;0.30;;
3943;SDS011;1986;52.546;13.428;2024-02-16T06:12:08;0.40;;;0.40;;
3943;SDS011;1986;52.546;13.428;2024-02-16T06:14:38;0.30;;;0.30;;
3943;SDS011;1986;52.546;13.428;2024-02-16T06:17:29;0.30;;;0.30;;
3943;SDS011;1986;52.546;13.428;2024-02-16T06:20:22;0.30;;;0.30;;
3943;SDS011;1986;52.546;13.428;2024-02-16T06:22:50;0.30;;;0.30;;
3943;SDS011;1986;52.546;13.428;2024-02-16T06:25:23;0.30;;;0.30;;
3943;SDS011;1986;52.546;13.428;2024-02-16T06:27:52;0.40;;;0.40;;
3943;SDS011;1986;52.546;13.428;2024-02-16T06:30:20;0.30;;;0.30;;
3943;SDS011;1986;52.546;13.428;2024-02-16T06:32:49;0.30;;;0.30;;
3943;SDS011;1986;52.546;13.428;2024-02-16T06:35:17;0.30;;;0.30;;
3943;SDS011;1986;52.546;13.428;2024-02-16T06:37:45;0.30;;;0.30;;
3943;SDS011;1986;52.546;13.428;2024-02-16T06:40:16;0.30;;;0.30;;
3943;SDS011;1986;52.546;13.428;2024-02-16T06:42:43;0.30;;;0.30;;
3943;SDS011;1986;52.546;13.428;2024-02-16T06:45:11;0.30;;;0.30;;
3943;SDS011;1986;52.546;13.428;2024-02-16T06:47:41;0.40;;;0.40;;
3943;SDS011;1986;52.546;13.428;2024-02-16T06:50:20;0.30;;;0.30;;
3943;SDS011;1986;52.546;13.428;2024-02-16T06:52:48;0.40;;;0.40;;
3943;SDS011;1986;52.546;13.428;2024-02-16T06:55:28;0.40;;;0.40;;
3943;SDS011;1986;52.546;13.428;2024-02-16T06:57:55;0.50;;;0.50;;
3943;SDS011;1986;52.546;13.428;2024-02-16T07:00:28;0.43;;;0.43;;
3943;SDS011;1986;52.546;13.428;2024-02-16T07:02:55;0.40;;;0.40;;
3943;SDS011;1986;52.546;13.428;2024-02-16T07:05:26;0.40;;;0.40;;
3943;SDS011;1986;52.546;13.428;2024-02-16T07:07:56;0.40;;;0.40;;
3943;SDS011;1986;52.546;13.428;2024-02-16T07:10:23;0.40;;;0.40;;
3943;SDS011;1986;52.546;13.428;2024-02-16T07:12:54;0.40;;;0.40;;
3943;SDS011;1986;52.546;13.428;2024-02-16T07:15:22;0.40;;;0.40;;
3943;SDS011;1986;52.546;13.428;2024-02-16T07:17:52;0.40;;;0.40;;
3943;SDS011;1986;52.546;13.428;2024-02-16T07:20:19;0.40;;;0.40;;
3943;SDS011;1986;52.546;13.428;2024-02-16T07:22:49;0.40;;;0.40;;
3943;SDS011;1986;52.546;13.428;2024-02-16T07:25:24;0.40;;;0.40;;
3943;SDS011;1986;52.546;13.428;2024-02-16T07:27:53;0.40;;;0.40;;
3943;SDS011;1986;52.546;13.428;2024-02-16T07:30:19;0.40;;;0.40;;
3943;SDS011;1986;52.546;13.428;2024-02-16T07:32:48;0.50;;;0.50;;
3943;SDS011;1986;52.546;13.428;2024-02-16T07:35:17;0.40;;;0.40;;
3943;SDS011;1986;52.546;13.428;2024-02-16T07:37:46;0.50;;;0.50;;
3943;SDS011;1986;52.546;13.428;2024-02-16T07:40:18;0.50;;;0.50;;
3943;SDS011;1986;52.546;13.428;2024-02-16T07:42:45;0.50;;;0.50;;
3943;SDS011;1986;52.546;13.428;2024-02-16T07:45:17;0.50;;;0.50;;
3943;SDS011;1986;52.546;13.428;2024-02-16T07:47:55;0.50;;;0.50;;
3943;SDS011;1986;52.546;13.428;2024-02-16T07:50:29;0.50;;;0.50;;
3943;SDS011;1986;52.546;13.428;2024-02-16T07:53:17;0.63;;;0.63;;
3943;SDS011;1986;52.546;13.428;2024-02-16T07:55:50;0.70;;;0.70;;
3943;SDS011;1986;52.546;13.428;2024-02-16T07:58:20;0.80;;;0.80;;
3943;SDS011;1986;52.546;13.428;2024-02-16T08:00:50;0.90;;;0.90;;
3943;SDS011;1986;52.546;13.428;2024-02-16T08:03:23;0.90;;;0.90;;
3943;SDS011;1986;52.546;13.428;2024-02-16T08:05:53;1.20;;;1.20;;
3943;SDS011;1986;52.546;13.428;2024-02-16T08:08:22;1.03;;;1.03;;
3943;SDS011;1986;52.546;13.428;2024-02-16T08:10:55;1.50;;;1.50;;
3943;SDS011;1986;52.546;13.428;2024-02-16T08:13:35;1.93;;;1.93;;
3943;SDS011;1986;52.546;13.428;2024-02-16T08:16:04;2.40;;;2.40;;
3943;SDS011;1986;52.546;13.428;2024-02-16T08:18:37;2.63;;;2.63;;
3943;SDS011;1986;52.546;13.428;2024-02-16T08:21:05;3.20;;;3.20;;
3943;SDS011;1986;52.546;13.428;2024-02-16T08:23:35;3.67;;;3.67;;
3943;SDS011;1986;52.546;13.428;2024-02-16T08:26:04;3.40;;;3.40;;
3943;SDS011;1986;52.546;13.428;2024-02-16T08:28:34;3.50;;;3.50;;
3943;SDS011;1986;52.546;13.428;2024-02-16T08:31:00;3.70;;;3.70;;
3943;SDS011;1986;52.546;13.428;2024-02-16T08:34:01;3.67;;;3.67;;
3943;SDS011;1986;52.546;13.428;2024-02-16T08:36:32;4.50;;;4.50;;
3943;SDS011;1986;52.546;13.428;2024-02-16T08:39:04;4.83;;;4.83;;
3943;SDS011;1986;52.546;13.428;2024-02-16T08:41:45;5.50;;;5.50;;
3943;SDS011;1986;52.546;13.428;2024-02-16T08:44:14;5.40;;;5.40;;
3943;SDS011;1986;52.546;13.428;2024-02-16T08:47:01;5.60;;;5.60;;
3943;SDS011;1986;52.546;13.428;2024-02-16T08:49:45;6.10;;;6.10;;
3943;SDS011;1986;52.546;13.428;2024-02-16T08:52:30;6.30;;;6.30;;
3943;SDS011;1986;52.546;13.428;2024-02-16T08:55:15;6.50;;;6.50;;
3943;SDS011;1986;52.546;13.428;2024-02-16T09:12:52;7.30;;;7.30;;
3943;SDS011;1986;52.546;13.428;2024-02-16T09:16:30;7.30;;;7.30;;
3943;SDS011;1986;52.546;13.428;2024-02-16T09:21:41;7.30;;;7.30;;
3943;SDS011;1986;52.546;13.428;2024-02-16T09:24:33;7.20;;;7.20;;
3943;SDS011;1986;52.546;13.428;2024-02-16T09:27:35;7.40;;;7.40;;
3943;SDS011;1986;52.546;13.428;2024-02-16T09:53:40;8.87;;;8.77;;
3943;SDS011;1986;52.546;13.428;2024-02-16T09:56:32;9.73;;;9.63;;
3943;SDS011;1986;52.546;13.428;2024-02-16T09:59:12;10.10;;;10.00;;
3943;SDS011;1986;52.546;13.428;2024-02-16T10:02:00;10.30;;;10.20;;
3943;SDS011;1986;52.546;13.428;2024-02-16T10:04:48;10.40;;;10.30;;
3943;SDS011;1986;52.546;13.428;2024-02-16T10:17:34;11.97;;;11.77;;
3943;SDS011;1986;52.546;13.428;2024-02-16T10:22:48;12.73;;;12.53;;
3943;SDS011;1986;52.546;13.428;2024-02-16T10:25:31;12.50;;;12.30;;
3943;SDS011;1986;52.546;13.428;2024-02-16T10:28:14;12.90;;;12.60;;
3943;SDS011;1986;52.546;13.428;2024-02-16T10:31:01;13.80;;;13.50;;
3943;SDS011;1986;52.546;13.428;2024-02-16T10:33:35;13.03;;;12.73;;
3943;SDS011;1986;52.546;13.428;2024-02-16T10:36:20;13.47;;;13.17;;
3943;SDS011;1986;52.546;13.428;2024-02-16T10:38:50;13.37;;;13.07;;
3943;SDS011;1986;52.546;13.428;2024-02-16T10:41:20;13.70;;;13.40;;
3943;SDS011;1986;52.546;13.428;2024-02-16T10:43:55;13.80;;;13.50;;
3943;SDS011;1986;52.546;13.428;2024-02-16T10:49:42;13.47;;;13.17;;
3943;SDS011;1986;52.546;13.428;2024-02-16T10:52:16;13.80;;;13.50;;
3943;SDS011;1986;52.546;13.428;2024-02-16T10:54:53;14.40;;;14.00;;
3943;SDS011;1986;52.546;13.428;2024-02-16T10:57:32;14.70;;;14.30;;
3943;SDS011;1986;52.546;13.428;2024-02-16T11:00:15;13.10;;;12.80;;
3943;SDS011;1986;52.546;13.428;2024-02-16T11:12:33;13.80;;;13.50;;
3943;SDS011;1986;52.546;13.428;2024-02-16T11:15:26;13.97;;;13.67;;
3943;SDS011;1986;52.546;13.428;2024-02-16T11:18:13;13.20;;;12.90;;
3943;SDS011;1986;52.546;13.428;2024-02-16T11:23:51;13.57;;;13.27;;
3943;SDS011;1986;52.546;13.428;2024-02-16T11:26:21;13.67;;;13.37;;
3943;SDS011;1986;52.546;13.428;2024-02-16T11:29:10;13.80;;;13.40;;
3943;SDS011;1986;52.546;13.428;2024-02-16T11:32:25;13.63;;;13.33;;
3943;SDS011;1986;52.546;13.428;2024-02-16T11:35:19;14.80;;;14.40;;
3943;SDS011;1986;52.546;13.428;2024-02-16T11:38:13;14.40;;;14.00;;
3943;SDS011;1986;52.546;13.428;2024-02-16T11:41:02;14.30;;;13.90;;
3943;SDS011;1986;52.546;13.428;2024-02-16T11:43:31;14.50;;;14.10;;
3943;SDS011;1986;52.546;13.428;2024-02-16T11:46:13;14.10;;;13.70;;
3943;SDS011;1986;52.546;13.428;2024-02-16T11:49:04;14.40;;;14.00;;
3943;SDS011;1986;52.546;13.428;2024-02-16T11:51:46;14.43;;;14.03;;
3943;SDS011;1986;52.546;13.428;2024-02-16T11:57:49;15.30;;;14.80;;
3943;SDS011;1986;52.546;13.428;2024-02-16T12:00:47;15.30;;;14.80;;
3943;SDS011;1986;52.546;13.428;2024-02-16T12:03:57;15.80;;;15.30;;
3943;SDS011;1986;52.546;13.428;2024-02-16T12:06:40;15.90;;;15.40;;
3943;SDS011;1986;52.546;13.428;2024-02-16T12:24:53;16.63;;;15.93;;
3943;SDS011;1986;52.546;13.428;2024-02-16T12:27:57;17.30;;;16.60;;
3943;SDS011;1986;52.546;13.428;2024-02-16T12:30:48;17.33;;;16.63;;
3943;SDS011;1986;52.546;13.428;2024-02-16T12:33:37;18.23;;;17.53;;
3943;SDS011;1986;52.546;13.428;2024-02-16T12:36:35;17.67;;;16.97;;
3943;SDS011;1986;52.546;13.428;2024-02-16T12:42:23;17.10;;;16.40;;
3943;SDS011;1986;52.546;13.428;2024-02-16T12:44:56;17.60;;;16.90;;
3943;SDS011;1986;52.546;13.428;2024-02-16T12:47:44;17.90;;;17.10;;
3943;SDS011;1986;52.546;13.428;2024-02-16T12:50:33;17.47;;;16.67;;
3943;SDS011;1986;52.546;13.428;2024-02-16T12:53:11;17.90;;;17.10;;
3943;SDS011;1986;52.546;13.428;2024-02-16T12:56:01;17.57;;;16.80;;
3943;SDS011;1986;52.546;13.428;2024-02-16T13:15:31;17.53;;;16.83;;
3943;SDS011;1986;52.546;13.428;2024-02-16T13:18:06;17.13;;;16.43;;
3943;SDS011;1986;52.546;13.428;2024-02-16T13:20:46;17.57;;;16.80;;
3943;SDS011;1986;52.546;13.428;2024-02-16T13:23:21;16.90;;;16.20;;
3943;SDS011;1986;52.546;13.428;2024-02-16T13:25:58;17.50;;;16.70;;
3943;SDS011;1986;52.546;13.428;2024-02-16T13:31:58;17.30;;;16.60;;
3943;SDS011;1986;52.546;13.428;2024-02-16T13:34:29;17.47;;;16.67;;
3943;SDS011;1986;52.546;13.428;2024-02-16T13:37:02;17.40;;;16.60;;
3943;SDS011;1986;52.546;13.428;2024-02-16T13:39:57;17.90;;;17.20;;
3943;SDS011;1986;52.546;13.428;2024-02-16T13:50:57;17.70;;;16.90;;
3943;SDS011;1986;52.546;13.428;2024-02-16T13:53:30;17.60;;;16.80;;
3943;SDS011;1986;52.546;13.428;2024-02-16T13:56:22;17.50;;;16.70;;
3943;SDS011;1986;52.546;13.428;2024-02-16T13:59:06;17.30;;;16.60;;
3943;SDS011;1986;52.546;13.428;2024-02-16T14:01:38;17.80;;;17.00;;
3943;SDS011;1986;52.546;13.428;2024-02-16T14:16:37;18.00;;;17.20;;
3943;SDS011;1986;52.546;13.428;2024-02-16T14:19:28;18.03;;;17.23;;
3943;SDS011;1986;52.546;13.428;2024-02-16T14:22:19;17.43;;;16.73;;
3943;SDS011;1986;52.546;13.428;2024-02-16T14:24:57;17.43;;;16.73;;
3943;SDS011;1986;52.546;13.428;2024-02-16T14:27:27;17.80;;;17.10;;
3943;SDS011;1986;52.546;13.428;2024-02-16T14:30:15;17.53;;;16.83;;
3943;SDS011;1986;52.546;13.428;2024-02-16T14:32:54;17.60;;;16.80;;
3943;SDS011;1986;52.546;13.428;2024-02-16T14:35:39;17.43;;;16.73;;
3943;SDS011;1986;52.546;13.428;2024-02-16T14:38:19;17.50;;;16.80;;
3943;SDS011;1986;52.546;13.428;2024-02-16T14:40:50;18.07;;;17.27;;
3943;SDS011;1986;52.546;13.428;2024-02-16T14:43:31;17.50;;;16.80;;
3943;SDS011;1986;52.546;13.428;2024-02-16T14:46:12;17.70;;;17.00;;
3943;SDS011;1986;52.546;13.428;2024-02-16T14:49:01;17.40;;;16.70;;
3943;SDS011;1986;52.546;13.428;2024-02-16T14:51:51;17.20;;;16.50;;
3943;SDS011;1986;52.546;13.428;2024-02-16T14:54:32;17.27;;;16.57;;
3943;SDS011;1986;52.546;13.428;2024-02-16T14:57:25;17.33;;;16.63;;
3943;SDS011;1986;52.546;13.428;2024-02-16T15:00:01;17.20;;;16.50;;
3943;SDS011;1986;52.546;13.428;2024-02-16T15:02:38;17.37;;;16.67;;
3943;SDS011;1986;52.546;13.428;2024-02-16T15:05:12;18.10;;;17.40;;
3943;SDS011;1986;52.546;13.428;2024-02-16T15:07:55;18.30;;;17.50;;
3943;SDS011;1986;52.546;13.428;2024-02-16T15:10:36;18.73;;;17.93;;
3943;SDS011;1986;52.546;13.428;2024-02-16T15:13:18;18.07;;;17.27;;
3943;SDS011;1986;52.546;13.428;2024-02-16T15:15:55;18.30;;;17.50;;
3943;SDS011;1986;52.546;13.428;2024-02-16T15:18:26;17.87;;;17.07;;
3943;SDS011;1986;52.546;13.428;2024-02-16T15:24:07;17.73;;;17.03;;
3943;SDS011;1986;52.546;13.428;2024-02-16T15:26:42;17.80;;;17.10;;
3943;SDS011;1986;52.546;13.428;2024-02-16T15:29:28;17.90;;;17.20;;
3943;SDS011;1986;52.546;13.428;2024-02-16T15:31:58;17.80;;;17.10;;
3943;SDS011;1986;52.546;13.428;2024-02-16T15:34:35;18.27;;;17.47;;
3943;SDS011;1986;52.546;13.428;2024-02-16T15:40:44;18.00;;;17.30;;
3943;SDS011;1986;52.546;13.428;2024-02-16T15:43:12;17.80;;;17.10;;
3943;SDS011;1986;52.546;13.428;2024-02-16T15:45:53;17.63;;;16.93;;
3943;SDS011;1986;52.546;13.428;2024-02-16T15:48:34;17.87;;;17.17;;
3943;SDS011;1986;52.546;13.428;2024-02-16T15:51:02;17.87;;;17.10;;
3943;SDS011;1986;52.546;13.428;2024-02-16T15:53:32;17.80;;;17.10;;
3943;SDS011;1986;52.546;13.428;2024-02-16T15:56:04;17.80;;;17.10;;
3943;SDS011;1986;52.546;13.428;2024-02-16T15:58:35;17.40;;;16.70;;
3943;SDS011;1986;52.546;13.428;2024-02-16T16:01:04;18.10;;;17.30;;
3943;SDS011;1986;52.546;13.428;2024-02-16T16:03:31;17.47;;;16.77;;
3943;SDS011;1986;52.546;13.428;2024-02-16T16:06:00;17.30;;;16.60;;
3943;SDS011;1986;52.546;13.428;2024-02-16T16:08:30;17.37;;;16.67;;
3943;SDS011;1986;52.546;13.428;2024-02-16T16:11:12;17.50;;;16.80;;
3943;SDS011;1986;52.546;13.428;2024-02-16T16:13:43;17.27;;;16.57;;
3943;SDS011;1986;52.546;13.428;2024-02-16T16:16:16;17.40;;;16.70;;
3943;SDS011;1986;52.546;13.428;2024-02-16T16:18:51;17.10;;;16.40;;
3943;SDS011;1986;52.546;13.428;2024-02-16T16:21:21;17.20;;;16.50;;
3943;SDS011;1986;52.546;13.428;2024-02-16T16:23:53;17.10;;;16.40;;
3943;SDS011;1986;52.546;13.428;2024-02-16T16:26:25;17.13;;;16.43;;
3943;SDS011;1986;52.546;13.428;2024-02-16T16:28:58;17.00;;;16.40;;
3943;SDS011;1986;52.546;13.428;2024-02-16T16:31:51;17.27;;;16.57;;
3943;SDS011;1986;52.546;13.428;2024-02-16T16:34:24;16.90;;;16.30;;
3943;SDS011;1986;52.546;13.428;2024-02-16T16:36:54;17.20;;;16.50;;
3943;SDS011;1986;52.546;13.428;2024-02-16T16:39:25;16.70;;;16.10;;
3943;SDS011;1986;52.546;13.428;2024-02-16T16:41:57;16.77;;;16.17;;
3943;SDS011;1986;52.546;13.428;2024-02-16T16:44:48;17.20;;;16.50;;
3943;SDS011;1986;52.546;13.428;2024-02-16T16:47:22;16.60;;;16.00;;
3943;SDS011;1986;52.546;13.428;2024-02-16T16:50:06;16.80;;;16.20;;
3943;SDS011;1986;52.546;13.428;2024-02-16T16:52:38;17.07;;;16.40;;
3943;SDS011;1986;52.546;13.428;2024-02-16T16:55:12;16.40;;;15.80;;
3943;SDS011;1986;52.546;13.428;2024-02-16T16:57:48;16.87;;;16.27;;
3943;SDS011;1986;52.546;13.428;2024-02-16T17:00:32;17.00;;;16.40;;
3943;SDS011;1986;52.546;13.428;2024-02-16T17:03:09;17.10;;;16.43;;
3943;SDS011;1986;52.546;13.428;2024-02-16T17:08:50;17.10;;;16.40;;
3943;SDS011;1986;52.546;13.428;2024-02-16T17:11:22;16.60;;;16.00;;
3943;SDS011;1986;52.546;13.428;2024-02-16T17:14:00;16.40;;;15.80;;
3943;SDS011;1986;52.546;13.428;2024-02-16T17:16:28;15.70;;;15.20;;
3943;SDS011;1986;52.546;13.428;2024-02-16T17:18:56;15.70;;;15.20;;
3943;SDS011;1986;52.546;13.428;2024-02-16T17:21:31;15.27;;;14.87;;
3943;SDS011;1986;52.546;13.428;2024-02-16T17:24:12;14.90;;;14.50;;
3943;SDS011;1986;52.546;13.428;2024-02-16T17:26:48;14.60;;;14.20;;
3943;SDS011;1986;52.546;13.428;2024-02-16T17:32:17;14.30;;;13.90;;
3943;SDS011;1986;52.546;13.428;2024-02-16T17:35:12;14.20;;;13.80;;
3943;SDS011;1986;52.546;13.428;2024-02-16T17:37:57;14.20;;;13.80;;
3943;SDS011;1986;52.546;13.428;2024-02-16T17:40:26;14.00;;;13.70;;
3943;SDS011;1986;52.546;13.428;2024-02-16T17:42:57;14.10;;;13.80;;
3943;SDS011;1986;52.546;13.428;2024-02-16T17:48:13;14.20;;;13.80;;
3943;SDS011;1986;52.546;13.428;2024-02-16T17:50:43;14.07;;;13.67;;
3943;SDS011;1986;52.546;13.428;2024-02-16T17:53:12;14.50;;;14.10;;
3943;SDS011;1986;52.546;13.428;2024-02-16T17:55:40;13.57;;;13.27;;
3943;SDS011;1986;52.546;13.428;2024-02-16T17:58:10;13.63;;;13.33;;
3943;SDS011;1986;52.546;13.428;2024-02-16T18:00:53;14.10;;;13.80;;